sensor_id;sensor_type;location;lat;lon;timestamp;P1;durP1;ratioP1;P2;durP2;ratioP2
40621;SDS011;26324;52.040;11.528;2023-11-18T00:02:00;1.17;;;0.70;;
40621;SDS011;26324;52.040;11.528;2023-11-18T00:04:27;1.27;;;1.17;;
40621;SDS011;26324;52.040;11.528;2023-11-18T00:06:54;1.00;;;0.50;;
40621;SDS011;26324;52.040;11.528;2023-11-18T00:09:24;0.63;;;0.32;;
40621;SDS011;26324;52.040;11.528;2023-11-18T00:11:51;1.02;;;0.98;;
40621;SDS011;26324;52.040;11.528;2023-11-18T00:14:19;1.33;;;0.85;;
40621;SDS011;26324;52.040;11.528;2023-11-18T00:16:48;0.57;;;0.57;;
40621;SDS011;26324;52.040;11.528;2023-11-18T00:19:15;0.20;;;0.20;;
40621;SDS011;26324;52.040;11.528;2023-11-18T00:21:43;1.77;;;0.68;;
40621;SDS011;26324;52.040;11.528;2023-11-18T00:24:10;1.58;;;0.88;;
40621;SDS011;26324;52.040;11.528;2023-11-18T00:26:38;1.08;;;0.22;;
40621;SDS011;26324;52.040;11.528;2023-11-18T00:29:05;0.43;;;0.38;;
40621;SDS011;26324;52.040;11.528;2023-11-18T00:31:33;1.00;;;0.70;;
40621;SDS011;26324;52.040;11.528;2023-11-18T00:34:00;1.05;;;0.73;;
40621;SDS011;26324;52.040;11.528;2023-11-18T00:36:28;1.00;;;0.40;;
40621;SDS011;26324;52.040;11.528;2023-11-18T00:38:56;1.65;;;0.73;;
40621;SDS011;26324;52.040;11.528;2023-11-18T00:41:23;0.75;;;0.60;;
40621;SDS011;26324;52.040;11.528;2023-11-18T00:43:50;1.65;;;0.73;;
40621;SDS011;26324;52.040;11.528;2023-11-18T00:46:18;0.68;;;0.30;;
40621;SDS011;26324;52.040;11.528;2023-11-18T00:48:46;1.88;;;1.00;;
40621;SDS011;26324;52.040;11.528;2023-11-18T00:51:13;3.67;;;1.17;;
40621;SDS011;26324;52.040;11.528;2023-11-18T00:53:40;1.98;;;0.88;;
40621;SDS011;26324;52.040;11.528;2023-11-18T00:56:12;0.82;;;0.57;;
40621;SDS011;26324;52.040;11.528;2023-11-18T00:58:44;0.85;;;0.77;;
40621;SDS011;26324;52.040;11.528;2023-11-18T01:01:12;1.98;;;0.77;;
40621;SDS011;26324;52.040;11.528;2023-11-18T01:03:39;0.52;;;0.25;;
40621;SDS011;26324;52.040;11.528;2023-11-18T01:06:07;0.38;;;0.28;;
40621;SDS011;26324;52.040;11.528;2023-11-18T01:08:34;0.68;;;0.43;;
40621;SDS011;26324;52.040;11.528;2023-11-18T01:11:01;0.63;;;0.38;;
40621;SDS011;26324;52.040;11.528;2023-11-18T01:15:58;1.77;;;0.57;;
40621;SDS011;26324;52.040;11.528;2023-11-18T01:18:26;1.88;;;0.38;;
40621;SDS011;26324;52.040;11.528;2023-11-18T01:20:53;0.50;;;0.38;;
40621;SDS011;26324;52.040;11.528;2023-11-18T01:23:21;2.88;;;1.25;;
40621;SDS011;26324;52.040;11.528;2023-11-18T01:25:48;2.50;;;0.52;;
40621;SDS011;26324;52.040;11.528;2023-11-18T01:30:45;0.68;;;0.57;;
40621;SDS011;26324;52.040;11.528;2023-11-18T01:33:12;2.10;;;0.57;;
40621;SDS011;26324;52.040;11.528;2023-11-18T01:35:41;1.60;;;0.90;;
40621;SDS011;26324;52.040;11.528;2023-11-18T01:38:10;0.20;;;0.10;;
40621;SDS011;26324;52.040;11.528;2023-11-18T01:40:38;2.40;;;1.38;;
40621;SDS011;26324;52.040;11.528;2023-11-18T01:43:08;0.30;;;0.30;;
40621;SDS011;26324;52.040;11.528;2023-11-18T01:45:39;1.80;;;1.10;;
40621;SDS011;26324;52.040;11.528;2023-11-18T01:48:07;0.45;;;0.45;;
40621;SDS011;26324;52.040;11.528;2023-11-18T01:50:37;2.28;;;0.93;;
40621;SDS011;26324;52.040;11.528;2023-11-18T01:53:07;0.98;;;0.65;;
40621;SDS011;26324;52.040;11.528;2023-11-18T01:55:36;3.05;;;0.88;;
40621;SDS011;26324;52.040;11.528;2023-11-18T01:58:05;0.45;;;0.43;;
40621;SDS011;26324;52.040;11.528;2023-11-18T02:00:37;0.68;;;0.63;;
40621;SDS011;26324;52.040;11.528;2023-11-18T02:03:09;0.80;;;0.70;;
40621;SDS011;26324;52.040;11.528;2023-11-18T02:05:37;1.75;;;0.57;;
40621;SDS011;26324;52.040;11.528;2023-11-18T02:08:05;1.27;;;0.85;;
40621;SDS011;26324;52.040;11.528;2023-11-18T02:10:34;2.42;;;0.88;;
40621;SDS011;26324;52.040;11.528;2023-11-18T02:13:12;2.63;;;0.80;;
40621;SDS011;26324;52.040;11.528;2023-11-18T02:15:46;8.13;;;1.98;;
40621;SDS011;26324;52.040;11.528;2023-11-18T02:18:14;1.42;;;0.60;;
40621;SDS011;26324;52.040;11.528;2023-11-18T02:20:46;0.50;;;0.50;;
40621;SDS011;26324;52.040;11.528;2023-11-18T02:23:14;2.08;;;0.98;;
40621;SDS011;26324;52.040;11.528;2023-11-18T02:28:12;2.13;;;1.35;;
40621;SDS011;26324;52.040;11.528;2023-11-18T02:30:40;1.38;;;0.85;;
40621;SDS011;26324;52.040;11.528;2023-11-18T02:33:18;3.83;;;0.70;;
40621;SDS011;26324;52.040;11.528;2023-11-18T02:36:03;3.17;;;1.30;;
40621;SDS011;26324;52.040;11.528;2023-11-18T02:38:48;2.05;;;1.00;;
40621;SDS011;26324;52.040;11.528;2023-11-18T02:41:17;3.67;;;0.50;;
40621;SDS011;26324;52.040;11.528;2023-11-18T02:43:45;3.40;;;1.23;;
40621;SDS011;26324;52.040;11.528;2023-11-18T02:46:14;3.45;;;0.88;;
40621;SDS011;26324;52.040;11.528;2023-11-18T02:48:43;2.05;;;0.80;;
40621;SDS011;26324;52.040;11.528;2023-11-18T02:51:10;2.25;;;1.40;;
40621;SDS011;26324;52.040;11.528;2023-11-18T02:53:38;1.00;;;0.52;;
40621;SDS011;26324;52.040;11.528;2023-11-18T02:56:08;2.53;;;1.33;;
40621;SDS011;26324;52.040;11.528;2023-11-18T02:58:35;1.42;;;0.77;;
40621;SDS011;26324;52.040;11.528;2023-11-18T03:01:03;0.73;;;0.52;;
40621;SDS011;26324;52.040;11.528;2023-11-18T03:03:31;0.65;;;0.57;;
40621;SDS011;26324;52.040;11.528;2023-11-18T03:05:59;2.22;;;1.10;;
40621;SDS011;26324;52.040;11.528;2023-11-18T03:08:27;6.07;;;1.20;;
40621;SDS011;26324;52.040;11.528;2023-11-18T03:10:56;2.13;;;1.67;;
40621;SDS011;26324;52.040;11.528;2023-11-18T03:13:25;1.48;;;1.35;;
40621;SDS011;26324;52.040;11.528;2023-11-18T03:15:52;5.22;;;1.05;;
40621;SDS011;26324;52.040;11.528;2023-11-18T03:18:20;1.60;;;0.90;;
40621;SDS011;26324;52.040;11.528;2023-11-18T03:20:47;3.88;;;1.35;;
40621;SDS011;26324;52.040;11.528;2023-11-18T03:23:15;1.27;;;1.17;;
40621;SDS011;26324;52.040;11.528;2023-11-18T03:25:44;4.80;;;1.42;;
40621;SDS011;26324;52.040;11.528;2023-11-18T03:28:11;3.03;;;1.35;;
40621;SDS011;26324;52.040;11.528;2023-11-18T03:30:39;5.43;;;1.45;;
40621;SDS011;26324;52.040;11.528;2023-11-18T03:33:06;3.17;;;1.27;;
40621;SDS011;26324;52.040;11.528;2023-11-18T03:35:38;1.05;;;0.50;;
40621;SDS011;26324;52.040;11.528;2023-11-18T03:38:05;0.68;;;0.30;;
40621;SDS011;26324;52.040;11.528;2023-11-18T03:40:33;3.80;;;1.35;;
40621;SDS011;26324;52.040;11.528;2023-11-18T03:43:02;1.33;;;0.50;;
40621;SDS011;26324;52.040;11.528;2023-11-18T03:45:29;3.03;;;1.55;;
40621;SDS011;26324;52.040;11.528;2023-11-18T03:47:57;1.23;;;0.45;;
40621;SDS011;26324;52.040;11.528;2023-11-18T03:50:24;1.65;;;0.52;;
40621;SDS011;26324;52.040;11.528;2023-11-18T03:52:52;2.03;;;1.08;;
40621;SDS011;26324;52.040;11.528;2023-11-18T03:55:19;2.30;;;0.82;;
40621;SDS011;26324;52.040;11.528;2023-11-18T03:57:47;1.02;;;0.75;;
40621;SDS011;26324;52.040;11.528;2023-11-18T04:00:17;1.25;;;0.45;;
40621;SDS011;26324;52.040;11.528;2023-11-18T04:02:47;1.98;;;1.08;;
40621;SDS011;26324;52.040;11.528;2023-11-18T04:05:15;0.65;;;0.55;;
40621;SDS011;26324;52.040;11.528;2023-11-18T04:07:42;3.45;;;1.40;;
40621;SDS011;26324;52.040;11.528;2023-11-18T04:10:10;2.10;;;1.20;;
40621;SDS011;26324;52.040;11.528;2023-11-18T04:12:37;1.55;;;1.17;;
40621;SDS011;26324;52.040;11.528;2023-11-18T04:15:05;1.67;;;0.82;;
40621;SDS011;26324;52.040;11.528;2023-11-18T04:17:33;0.77;;;0.70;;
40621;SDS011;26324;52.040;11.528;2023-11-18T04:20:01;1.33;;;0.90;;
40621;SDS011;26324;52.040;11.528;2023-11-18T04:22:31;1.42;;;0.98;;
40621;SDS011;26324;52.040;11.528;2023-11-18T04:24:59;0.70;;;0.70;;
40621;SDS011;26324;52.040;11.528;2023-11-18T04:27:26;0.98;;;0.93;;
40621;SDS011;26324;52.040;11.528;2023-11-18T04:29:53;1.75;;;1.08;;
40621;SDS011;26324;52.040;11.528;2023-11-18T04:32:21;1.40;;;0.70;;
40621;SDS011;26324;52.040;11.528;2023-11-18T04:34:48;2.35;;;0.80;;
40621;SDS011;26324;52.040;11.528;2023-11-18T04:37:18;0.90;;;0.32;;
40621;SDS011;26324;52.040;11.528;2023-11-18T04:39:45;1.10;;;0.75;;
40621;SDS011;26324;52.040;11.528;2023-11-18T04:42:13;4.45;;;1.40;;
40621;SDS011;26324;52.040;11.528;2023-11-18T04:44:41;1.27;;;1.05;;
40621;SDS011;26324;52.040;11.528;2023-11-18T04:47:08;2.30;;;0.90;;
40621;SDS011;26324;52.040;11.528;2023-11-18T04:49:38;1.55;;;0.57;;
40621;SDS011;26324;52.040;11.528;2023-11-18T04:52:05;1.08;;;0.65;;
40621;SDS011;26324;52.040;11.528;2023-11-18T04:54:33;4.00;;;0.73;;
40621;SDS011;26324;52.040;11.528;2023-11-18T04:57:00;2.15;;;0.95;;
40621;SDS011;26324;52.040;11.528;2023-11-18T04:59:28;1.55;;;0.35;;
40621;SDS011;26324;52.040;11.528;2023-11-18T05:01:57;2.47;;;1.30;;
40621;SDS011;26324;52.040;11.528;2023-11-18T05:04:25;2.85;;;1.10;;
40621;SDS011;26324;52.040;11.528;2023-11-18T05:06:52;1.52;;;0.98;;
40621;SDS011;26324;52.040;11.528;2023-11-18T05:09:19;1.65;;;0.98;;
40621;SDS011;26324;52.040;11.528;2023-11-18T05:11:47;1.27;;;0.75;;
40621;SDS011;26324;52.040;11.528;2023-11-18T05:14:14;0.82;;;0.80;;
40621;SDS011;26324;52.040;11.528;2023-11-18T05:16:43;1.58;;;1.05;;
40621;SDS011;26324;52.040;11.528;2023-11-18T05:19:11;1.13;;;0.85;;
40621;SDS011;26324;52.040;11.528;2023-11-18T05:21:38;2.75;;;1.45;;
40621;SDS011;26324;52.040;11.528;2023-11-18T05:24:06;0.73;;;0.45;;
40621;SDS011;26324;52.040;11.528;2023-11-18T05:26:34;1.20;;;0.63;;
40621;SDS011;26324;52.040;11.528;2023-11-18T05:29:01;0.98;;;0.55;;
40621;SDS011;26324;52.040;11.528;2023-11-18T05:31:29;2.00;;;0.82;;
40621;SDS011;26324;52.040;11.528;2023-11-18T05:33:58;1.00;;;0.70;;
40621;SDS011;26324;52.040;11.528;2023-11-18T05:36:26;1.75;;;0.75;;
40621;SDS011;26324;52.040;11.528;2023-11-18T05:38:54;1.73;;;0.82;;
40621;SDS011;26324;52.040;11.528;2023-11-18T05:41:22;2.13;;;1.17;;
40621;SDS011;26324;52.040;11.528;2023-11-18T05:43:54;1.35;;;0.63;;
40621;SDS011;26324;52.040;11.528;2023-11-18T05:46:24;1.75;;;1.08;;
40621;SDS011;26324;52.040;11.528;2023-11-18T05:48:56;2.75;;;1.08;;
40621;SDS011;26324;52.040;11.528;2023-11-18T05:51:24;1.30;;;0.57;;
40621;SDS011;26324;52.040;11.528;2023-11-18T05:53:53;0.80;;;0.80;;
40621;SDS011;26324;52.040;11.528;2023-11-18T05:56:22;3.83;;;1.45;;
40621;SDS011;26324;52.040;11.528;2023-11-18T05:58:51;1.88;;;0.57;;
40621;SDS011;26324;52.040;11.528;2023-11-18T06:01:22;0.57;;;0.35;;
40621;SDS011;26324;52.040;11.528;2023-11-18T06:03:50;1.73;;;0.85;;
40621;SDS011;26324;52.040;11.528;2023-11-18T06:06:18;2.65;;;1.27;;
40621;SDS011;26324;52.040;11.528;2023-11-18T06:08:50;1.75;;;0.50;;
40621;SDS011;26324;52.040;11.528;2023-11-18T06:11:19;2.25;;;1.00;;
40621;SDS011;26324;52.040;11.528;2023-11-18T06:13:50;3.08;;;1.70;;
40621;SDS011;26324;52.040;11.528;2023-11-18T06:16:20;3.13;;;0.90;;
40621;SDS011;26324;52.040;11.528;2023-11-18T06:18:49;1.27;;;0.90;;
40621;SDS011;26324;52.040;11.528;2023-11-18T06:21:21;2.10;;;0.47;;
40621;SDS011;26324;52.040;11.528;2023-11-18T06:23:55;2.13;;;0.82;;
40621;SDS011;26324;52.040;11.528;2023-11-18T06:26:24;3.40;;;0.80;;
40621;SDS011;26324;52.040;11.528;2023-11-18T06:28:53;1.20;;;0.50;;
40621;SDS011;26324;52.040;11.528;2023-11-18T06:31:22;3.03;;;1.13;;
40621;SDS011;26324;52.040;11.528;2023-11-18T06:33:50;2.53;;;1.52;;
40621;SDS011;26324;52.040;11.528;2023-11-18T06:36:19;3.03;;;1.00;;
40621;SDS011;26324;52.040;11.528;2023-11-18T06:38:50;2.00;;;0.55;;
40621;SDS011;26324;52.040;11.528;2023-11-18T06:41:20;1.88;;;0.65;;
40621;SDS011;26324;52.040;11.528;2023-11-18T06:44:00;1.15;;;0.90;;
40621;SDS011;26324;52.040;11.528;2023-11-18T06:46:36;2.90;;;1.42;;
40621;SDS011;26324;52.040;11.528;2023-11-18T06:49:07;1.95;;;0.90;;
40621;SDS011;26324;52.040;11.528;2023-11-18T06:51:38;2.72;;;0.82;;
40621;SDS011;26324;52.040;11.528;2023-11-18T06:54:05;1.75;;;1.23;;
40621;SDS011;26324;52.040;11.528;2023-11-18T06:56:38;2.75;;;1.85;;
40621;SDS011;26324;52.040;11.528;2023-11-18T06:59:10;4.93;;;1.00;;
40621;SDS011;26324;52.040;11.528;2023-11-18T07:01:42;3.00;;;0.70;;
40621;SDS011;26324;52.040;11.528;2023-11-18T07:06:41;2.67;;;1.33;;
40621;SDS011;26324;52.040;11.528;2023-11-18T07:09:10;4.13;;;0.70;;
40621;SDS011;26324;52.040;11.528;2023-11-18T07:11:45;0.50;;;0.50;;
40621;SDS011;26324;52.040;11.528;2023-11-18T07:14:14;0.63;;;0.55;;
40621;SDS011;26324;52.040;11.528;2023-11-18T07:16:42;1.77;;;0.77;;
40621;SDS011;26324;52.040;11.528;2023-11-18T07:21:47;0.43;;;0.25;;
40621;SDS011;26324;52.040;11.528;2023-11-18T07:24:16;2.15;;;1.17;;
40621;SDS011;26324;52.040;11.528;2023-11-18T07:26:47;2.22;;;1.60;;
40621;SDS011;26324;52.040;11.528;2023-11-18T07:29:16;2.63;;;1.08;;
40621;SDS011;26324;52.040;11.528;2023-11-18T07:31:43;2.50;;;1.75;;
40621;SDS011;26324;52.040;11.528;2023-11-18T07:34:12;2.95;;;1.15;;
40621;SDS011;26324;52.040;11.528;2023-11-18T07:36:40;2.50;;;1.02;;
40621;SDS011;26324;52.040;11.528;2023-11-18T07:39:07;5.97;;;1.98;;
40621;SDS011;26324;52.040;11.528;2023-11-18T07:41:42;1.70;;;0.85;;
40621;SDS011;26324;52.040;11.528;2023-11-18T07:44:10;5.43;;;3.00;;
40621;SDS011;26324;52.040;11.528;2023-11-18T07:46:39;4.57;;;1.65;;
40621;SDS011;26324;52.040;11.528;2023-11-18T07:49:09;2.70;;;2.13;;
40621;SDS011;26324;52.040;11.528;2023-11-18T07:51:38;5.15;;;2.25;;
40621;SDS011;26324;52.040;11.528;2023-11-18T07:54:07;4.05;;;1.65;;
40621;SDS011;26324;52.040;11.528;2023-11-18T07:56:36;3.17;;;1.58;;
40621;SDS011;26324;52.040;11.528;2023-11-18T07:59:04;3.47;;;2.30;;
40621;SDS011;26324;52.040;11.528;2023-11-18T08:01:35;4.43;;;1.88;;
40621;SDS011;26324;52.040;11.528;2023-11-18T08:04:02;3.85;;;1.85;;
40621;SDS011;26324;52.040;11.528;2023-11-18T08:06:33;2.53;;;1.77;;
40621;SDS011;26324;52.040;11.528;2023-11-18T08:09:01;3.40;;;2.40;;
40621;SDS011;26324;52.040;11.528;2023-11-18T08:11:29;2.80;;;1.60;;
40621;SDS011;26324;52.040;11.528;2023-11-18T08:13:56;2.13;;;1.23;;
40621;SDS011;26324;52.040;11.528;2023-11-18T08:18:55;3.10;;;1.40;;
40621;SDS011;26324;52.040;11.528;2023-11-18T08:21:22;1.98;;;1.25;;
40621;SDS011;26324;52.040;11.528;2023-11-18T08:23:49;3.22;;;1.67;;
40621;SDS011;26324;52.040;11.528;2023-11-18T08:26:19;3.70;;;1.65;;
40621;SDS011;26324;52.040;11.528;2023-11-18T08:28:47;1.27;;;1.13;;
40621;SDS011;26324;52.040;11.528;2023-11-18T08:31:14;5.68;;;2.40;;
40621;SDS011;26324;52.040;11.528;2023-11-18T08:33:44;2.85;;;1.83;;
40621;SDS011;26324;52.040;11.528;2023-11-18T08:36:13;3.67;;;2.00;;
40621;SDS011;26324;52.040;11.528;2023-11-18T08:38:40;3.15;;;1.40;;
40621;SDS011;26324;52.040;11.528;2023-11-18T08:41:10;4.53;;;1.27;;
40621;SDS011;26324;52.040;11.528;2023-11-18T08:43:39;2.58;;;1.10;;
40621;SDS011;26324;52.040;11.528;2023-11-18T08:46:08;3.92;;;2.13;;
40621;SDS011;26324;52.040;11.528;2023-11-18T08:48:35;2.38;;;1.52;;
40621;SDS011;26324;52.040;11.528;2023-11-18T08:51:03;2.67;;;1.60;;
40621;SDS011;26324;52.040;11.528;2023-11-18T08:53:32;4.00;;;2.63;;
40621;SDS011;26324;52.040;11.528;2023-11-18T08:58:44;2.03;;;1.30;;
40621;SDS011;26324;52.040;11.528;2023-11-18T09:01:12;3.40;;;2.25;;
40621;SDS011;26324;52.040;11.528;2023-11-18T09:03:41;5.47;;;1.70;;
40621;SDS011;26324;52.040;11.528;2023-11-18T09:06:19;4.57;;;2.53;;
40621;SDS011;26324;52.040;11.528;2023-11-18T09:08:53;2.55;;;0.85;;
40621;SDS011;26324;52.040;11.528;2023-11-18T09:11:21;6.65;;;1.40;;
40621;SDS011;26324;52.040;11.528;2023-11-18T09:13:50;3.05;;;1.08;;
40621;SDS011;26324;52.040;11.528;2023-11-18T09:16:21;3.47;;;1.10;;
40621;SDS011;26324;52.040;11.528;2023-11-18T09:18:49;2.60;;;1.10;;
40621;SDS011;26324;52.040;11.528;2023-11-18T09:21:18;2.20;;;1.30;;
40621;SDS011;26324;52.040;11.528;2023-11-18T09:23:55;2.92;;;1.30;;
40621;SDS011;26324;52.040;11.528;2023-11-18T09:26:26;1.95;;;1.00;;
40621;SDS011;26324;52.040;11.528;2023-11-18T09:28:57;2.15;;;1.10;;
40621;SDS011;26324;52.040;11.528;2023-11-18T09:31:25;2.85;;;1.10;;
40621;SDS011;26324;52.040;11.528;2023-11-18T09:33:54;2.45;;;0.90;;
40621;SDS011;26324;52.040;11.528;2023-11-18T09:36:24;3.50;;;0.88;;
40621;SDS011;26324;52.040;11.528;2023-11-18T09:38:55;2.58;;;1.27;;
40621;SDS011;26324;52.040;11.528;2023-11-18T09:41:23;3.85;;;2.15;;
40621;SDS011;26324;52.040;11.528;2023-11-18T09:43:55;3.80;;;1.67;;
40621;SDS011;26324;52.040;11.528;2023-11-18T09:46:25;5.50;;;1.98;;
40621;SDS011;26324;52.040;11.528;2023-11-18T09:49:06;2.70;;;1.17;;
40621;SDS011;26324;52.040;11.528;2023-11-18T09:51:44;4.32;;;1.50;;
40621;SDS011;26324;52.040;11.528;2023-11-18T09:56:59;3.50;;;1.50;;
40621;SDS011;26324;52.040;11.528;2023-11-18T09:59:49;2.20;;;0.93;;
40621;SDS011;26324;52.040;11.528;2023-11-18T10:02:25;2.28;;;1.15;;
40621;SDS011;26324;52.040;11.528;2023-11-18T10:04:52;4.25;;;1.40;;
40621;SDS011;26324;52.040;11.528;2023-11-18T10:07:25;4.88;;;1.60;;
40621;SDS011;26324;52.040;11.528;2023-11-18T10:09:54;4.50;;;1.52;;
40621;SDS011;26324;52.040;11.528;2023-11-18T10:12:24;3.85;;;1.80;;
40621;SDS011;26324;52.040;11.528;2023-11-18T10:14:53;5.13;;;2.10;;
40621;SDS011;26324;52.040;11.528;2023-11-18T10:17:23;6.25;;;1.80;;
40621;SDS011;26324;52.040;11.528;2023-11-18T10:19:55;4.05;;;1.80;;
40621;SDS011;26324;52.040;11.528;2023-11-18T10:22:28;6.93;;;1.83;;
40621;SDS011;26324;52.040;11.528;2023-11-18T10:24:57;4.72;;;2.00;;
40621;SDS011;26324;52.040;11.528;2023-11-18T10:27:25;3.45;;;1.65;;
40621;SDS011;26324;52.040;11.528;2023-11-18T10:30:04;5.10;;;2.00;;
40621;SDS011;26324;52.040;11.528;2023-11-18T10:32:58;5.00;;;1.55;;
40621;SDS011;26324;52.040;11.528;2023-11-18T10:38:01;7.50;;;1.90;;
40621;SDS011;26324;52.040;11.528;2023-11-18T10:40:31;3.67;;;1.60;;
40621;SDS011;26324;52.040;11.528;2023-11-18T10:43:04;4.72;;;2.00;;
40621;SDS011;26324;52.040;11.528;2023-11-18T10:45:37;3.60;;;2.05;;
40621;SDS011;26324;52.040;11.528;2023-11-18T10:48:11;4.45;;;2.05;;
40621;SDS011;26324;52.040;11.528;2023-11-18T10:50:45;7.68;;;2.55;;
40621;SDS011;26324;52.040;11.528;2023-11-18T10:53:19;6.68;;;2.20;;
40621;SDS011;26324;52.040;11.528;2023-11-18T10:55:48;6.15;;;1.63;;
40621;SDS011;26324;52.040;11.528;2023-11-18T10:58:17;4.65;;;1.70;;
40621;SDS011;26324;52.040;11.528;2023-11-18T11:03:20;4.15;;;1.63;;
40621;SDS011;26324;52.040;11.528;2023-11-18T11:05:51;3.47;;;1.60;;
40621;SDS011;26324;52.040;11.528;2023-11-18T11:08:21;2.35;;;1.23;;
40621;SDS011;26324;52.040;11.528;2023-11-18T11:11:01;4.85;;;2.13;;
40621;SDS011;26324;52.040;11.528;2023-11-18T11:13:34;5.05;;;2.10;;
40621;SDS011;26324;52.040;11.528;2023-11-18T11:16:04;3.85;;;1.95;;
40621;SDS011;26324;52.040;11.528;2023-11-18T11:18:37;5.32;;;2.35;;
40621;SDS011;26324;52.040;11.528;2023-11-18T11:21:15;5.82;;;2.17;;
40621;SDS011;26324;52.040;11.528;2023-11-18T11:23:55;6.18;;;3.28;;
40621;SDS011;26324;52.040;11.528;2023-11-18T11:29:25;6.90;;;2.70;;
40621;SDS011;26324;52.040;11.528;2023-11-18T11:31:58;8.05;;;3.47;;
40621;SDS011;26324;52.040;11.528;2023-11-18T11:34:50;8.50;;;3.72;;
40621;SDS011;26324;52.040;11.528;2023-11-18T11:37:24;10.32;;;3.45;;
40621;SDS011;26324;52.040;11.528;2023-11-18T11:39:57;6.63;;;3.33;;
40621;SDS011;26324;52.040;11.528;2023-11-18T11:42:25;6.22;;;3.38;;
40621;SDS011;26324;52.040;11.528;2023-11-18T11:44:54;8.02;;;3.42;;
40621;SDS011;26324;52.040;11.528;2023-11-18T11:47:22;8.80;;;3.45;;
40621;SDS011;26324;52.040;11.528;2023-11-18T11:49:57;9.25;;;4.13;;
40621;SDS011;26324;52.040;11.528;2023-11-18T11:52:31;9.45;;;4.47;;
40621;SDS011;26324;52.040;11.528;2023-11-18T11:57:56;9.75;;;4.60;;
40621;SDS011;26324;52.040;11.528;2023-11-18T12:00:27;11.73;;;5.13;;
40621;SDS011;26324;52.040;11.528;2023-11-18T12:03:01;16.50;;;6.13;;
40621;SDS011;26324;52.040;11.528;2023-11-18T12:05:31;11.75;;;5.72;;
40621;SDS011;26324;52.040;11.528;2023-11-18T12:08:00;14.13;;;6.50;;
40621;SDS011;26324;52.040;11.528;2023-11-18T12:10:31;15.88;;;7.80;;
40621;SDS011;26324;52.040;11.528;2023-11-18T12:13:11;12.27;;;6.43;;
40621;SDS011;26324;52.040;11.528;2023-11-18T12:15:49;12.82;;;5.97;;
40621;SDS011;26324;52.040;11.528;2023-11-18T12:18:31;11.48;;;6.03;;
40621;SDS011;26324;52.040;11.528;2023-11-18T12:21:00;11.93;;;5.82;;
40621;SDS011;26324;52.040;11.528;2023-11-18T12:23:29;10.90;;;5.70;;
40621;SDS011;26324;52.040;11.528;2023-11-18T12:26:01;13.15;;;5.57;;
40621;SDS011;26324;52.040;11.528;2023-11-18T12:28:30;11.00;;;5.82;;
40621;SDS011;26324;52.040;11.528;2023-11-18T12:31:02;12.57;;;5.85;;
40621;SDS011;26324;52.040;11.528;2023-11-18T12:36:48;13.82;;;6.53;;
40621;SDS011;26324;52.040;11.528;2023-11-18T12:42:07;12.88;;;6.38;;
40621;SDS011;26324;52.040;11.528;2023-11-18T12:44:54;16.65;;;7.30;;
40621;SDS011;26324;52.040;11.528;2023-11-18T12:47:43;11.10;;;5.47;;
40621;SDS011;26324;52.040;11.528;2023-11-18T12:50:11;16.17;;;5.80;;
40621;SDS011;26324;52.040;11.528;2023-11-18T12:52:45;10.93;;;5.38;;
40621;SDS011;26324;52.040;11.528;2023-11-18T12:55:12;17.30;;;5.93;;
40621;SDS011;26324;52.040;11.528;2023-11-18T12:57:46;14.07;;;4.57;;
40621;SDS011;26324;52.040;11.528;2023-11-18T13:00:17;11.95;;;5.00;;
40621;SDS011;26324;52.040;11.528;2023-11-18T13:02:54;9.35;;;4.65;;
40621;SDS011;26324;52.040;11.528;2023-11-18T13:05:25;10.80;;;5.28;;
40621;SDS011;26324;52.040;11.528;2023-11-18T13:07:57;11.05;;;4.60;;
40621;SDS011;26324;52.040;11.528;2023-11-18T13:15:21;8.50;;;4.38;;
40621;SDS011;26324;52.040;11.528;2023-11-18T13:18:01;11.82;;;5.63;;
40621;SDS011;26324;52.040;11.528;2023-11-18T13:20:34;11.23;;;4.50;;
40621;SDS011;26324;52.040;11.528;2023-11-18T13:23:02;10.65;;;5.95;;
40621;SDS011;26324;52.040;11.528;2023-11-18T13:25:36;7.60;;;4.22;;
40621;SDS011;26324;52.040;11.528;2023-11-18T13:28:07;10.32;;;4.63;;
40621;SDS011;26324;52.040;11.528;2023-11-18T13:30:37;10.07;;;5.60;;
40621;SDS011;26324;52.040;11.528;2023-11-18T13:33:07;12.98;;;4.72;;
40621;SDS011;26324;52.040;11.528;2023-11-18T13:35:35;9.68;;;4.38;;
40621;SDS011;26324;52.040;11.528;2023-11-18T13:38:03;7.82;;;4.05;;
40621;SDS011;26324;52.040;11.528;2023-11-18T13:40:42;8.15;;;4.18;;
40621;SDS011;26324;52.040;11.528;2023-11-18T13:43:16;9.65;;;4.43;;
40621;SDS011;26324;52.040;11.528;2023-11-18T13:45:43;10.43;;;5.10;;
40621;SDS011;26324;52.040;11.528;2023-11-18T13:48:16;11.68;;;5.57;;
40621;SDS011;26324;52.040;11.528;2023-11-18T13:50:44;11.05;;;5.10;;
40621;SDS011;26324;52.040;11.528;2023-11-18T13:53:11;9.02;;;4.82;;
40621;SDS011;26324;52.040;11.528;2023-11-18T13:55:40;10.57;;;4.47;;
40621;SDS011;26324;52.040;11.528;2023-11-18T13:58:07;9.10;;;4.30;;
40621;SDS011;26324;52.040;11.528;2023-11-18T14:00:37;8.50;;;4.03;;
40621;SDS011;26324;52.040;11.528;2023-11-18T14:03:04;6.03;;;3.50;;
40621;SDS011;26324;52.040;11.528;2023-11-18T14:05:34;9.77;;;4.32;;
40621;SDS011;26324;52.040;11.528;2023-11-18T14:08:02;12.00;;;4.95;;
40621;SDS011;26324;52.040;11.528;2023-11-18T14:10:37;5.28;;;3.40;;
40621;SDS011;26324;52.040;11.528;2023-11-18T14:13:08;8.35;;;3.75;;
40621;SDS011;26324;52.040;11.528;2023-11-18T14:15:44;9.15;;;3.83;;
40621;SDS011;26324;52.040;11.528;2023-11-18T14:18:12;10.70;;;3.63;;
40621;SDS011;26324;52.040;11.528;2023-11-18T14:20:41;8.65;;;4.63;;
40621;SDS011;26324;52.040;11.528;2023-11-18T14:23:08;18.55;;;6.68;;
40621;SDS011;26324;52.040;11.528;2023-11-18T14:25:36;10.35;;;4.72;;
40621;SDS011;26324;52.040;11.528;2023-11-18T14:28:05;11.38;;;5.45;;
40621;SDS011;26324;52.040;11.528;2023-11-18T14:30:35;9.70;;;4.57;;
40621;SDS011;26324;52.040;11.528;2023-11-18T14:33:03;9.57;;;4.15;;
40621;SDS011;26324;52.040;11.528;2023-11-18T14:35:34;7.93;;;3.47;;
40621;SDS011;26324;52.040;11.528;2023-11-18T14:38:01;8.98;;;4.30;;
40621;SDS011;26324;52.040;11.528;2023-11-18T14:40:29;7.60;;;3.85;;
40621;SDS011;26324;52.040;11.528;2023-11-18T14:42:57;13.65;;;4.15;;
40621;SDS011;26324;52.040;11.528;2023-11-18T14:45:25;9.88;;;4.38;;
40621;SDS011;26324;52.040;11.528;2023-11-18T14:47:52;11.35;;;4.38;;
40621;SDS011;26324;52.040;11.528;2023-11-18T14:50:23;8.73;;;3.92;;
40621;SDS011;26324;52.040;11.528;2023-11-18T14:52:52;9.43;;;3.72;;
40621;SDS011;26324;52.040;11.528;2023-11-18T14:55:27;6.97;;;3.45;;
40621;SDS011;26324;52.040;11.528;2023-11-18T14:57:59;7.47;;;4.25;;
40621;SDS011;26324;52.040;11.528;2023-11-18T15:00:28;7.07;;;3.17;;
40621;SDS011;26324;52.040;11.528;2023-11-18T15:02:59;14.50;;;4.20;;
40621;SDS011;26324;52.040;11.528;2023-11-18T15:05:27;8.82;;;4.53;;
40621;SDS011;26324;52.040;11.528;2023-11-18T15:07:56;7.63;;;3.08;;
40621;SDS011;26324;52.040;11.528;2023-11-18T15:10:25;5.80;;;4.18;;
40621;SDS011;26324;52.040;11.528;2023-11-18T15:12:55;6.82;;;3.67;;
40621;SDS011;26324;52.040;11.528;2023-11-18T15:15:26;9.57;;;4.10;;
40621;SDS011;26324;52.040;11.528;2023-11-18T15:18:02;7.60;;;2.97;;
40621;SDS011;26324;52.040;11.528;2023-11-18T15:20:32;9.10;;;4.35;;
40621;SDS011;26324;52.040;11.528;2023-11-18T15:23:01;7.35;;;3.38;;
40621;SDS011;26324;52.040;11.528;2023-11-18T15:25:29;9.93;;;3.45;;
40621;SDS011;26324;52.040;11.528;2023-11-18T15:27:57;5.75;;;2.80;;
40621;SDS011;26324;52.040;11.528;2023-11-18T15:30:29;5.30;;;3.55;;
40621;SDS011;26324;52.040;11.528;2023-11-18T15:32:56;9.50;;;3.85;;